createdAt,value
2023-03-29T00:00:42.033Z,4.63
2023-03-29T00:03:13.678Z,4.30
2023-03-29T00:05:45.304Z,6.68
2023-03-29T00:08:16.838Z,4.28
2023-03-29T00:10:49.861Z,5.80
2023-03-29T00:13:21.376Z,5.13
2023-03-29T00:15:54.340Z,5.30
2023-03-29T00:18:25.908Z,4.80
2023-03-29T00:20:59.191Z,6.25
2023-03-29T00:23:30.818Z,4.57
2023-03-29T00:26:02.458Z,5.93
2023-03-29T00:28:34.319Z,5.93
2023-03-29T00:31:11.878Z,6.63
2023-03-29T00:33:44.377Z,9.13
2023-03-29T00:36:15.915Z,7.38
2023-03-29T00:38:47.549Z,6.55
2023-03-29T00:41:19.141Z,7.18
2023-03-29T00:43:59.033Z,5.20
2023-03-29T00:46:31.338Z,7.70
2023-03-29T00:49:09.483Z,6.00
2023-03-29T00:51:42.160Z,7.68
2023-03-29T00:54:17.300Z,8.48
2023-03-29T00:56:51.038Z,8.38
2023-03-29T00:59:28.046Z,7.57
2023-03-29T01:02:02.610Z,5.68
2023-03-29T01:04:37.090Z,6.45
2023-03-29T01:07:26.056Z,7.53
2023-03-29T01:10:12.570Z,8.55
2023-03-29T01:12:48.768Z,6.95
2023-03-29T01:15:25.917Z,6.50
2023-03-29T01:17:57.579Z,7.68
2023-03-29T01:20:34.820Z,8.02
2023-03-29T01:23:45.497Z,7.13
2023-03-29T01:26:27.229Z,7.03
2023-03-29T01:29:28.147Z,7.47
2023-03-29T01:32:11.708Z,5.25
2023-03-29T01:35:07.978Z,5.80
2023-03-29T01:37:46.441Z,8.23
2023-03-29T01:40:18.057Z,5.97
2023-03-29T01:43:06.713Z,7.30
2023-03-29T01:45:51.620Z,6.28
2023-03-29T01:48:27.532Z,5.40
2023-03-29T01:51:08.673Z,10.90
2023-03-29T01:53:57.551Z,7.07
2023-03-29T01:56:34.139Z,8.25
2023-03-29T01:59:13.797Z,6.53
2023-03-29T02:01:50.972Z,7.95
2023-03-29T02:04:46.251Z,7.60
2023-03-29T02:07:21.212Z,5.70
2023-03-29T02:09:54.480Z,7.20
2023-03-29T02:12:26.260Z,6.93
2023-03-29T02:14:58.495Z,7.03
2023-03-29T02:17:30.630Z,8.98
2023-03-29T02:20:10.434Z,6.45
2023-03-29T02:22:49.819Z,7.57
2023-03-29T02:25:21.712Z,6.85
2023-03-29T02:27:54.049Z,6.90
2023-03-29T02:30:30.588Z,7.60
2023-03-29T02:33:10.113Z,6.63
2023-03-29T02:35:50.894Z,7.90
2023-03-29T02:38:25.356Z,7.63
2023-03-29T02:40:58.877Z,7.25
2023-03-29T02:43:32.410Z,5.97
2023-03-29T02:46:05.623Z,6.40
2023-03-29T02:48:37.997Z,7.35
2023-03-29T02:51:19.806Z,8.38
2023-03-29T02:54:01.518Z,6.47
2023-03-29T02:56:44.341Z,7.28
2023-03-29T02:59:18.988Z,7.38
2023-03-29T03:01:50.851Z,8.23
2023-03-29T03:04:22.579Z,6.75
2023-03-29T03:06:54.189Z,7.85
2023-03-29T03:09:25.740Z,7.43
2023-03-29T03:11:57.305Z,7.93
2023-03-29T03:14:28.867Z,6.30
2023-03-29T03:17:03.129Z,7.57
2023-03-29T03:19:36.027Z,7.90
2023-03-29T03:22:07.619Z,7.07
2023-03-29T03:24:39.189Z,5.75
2023-03-29T03:27:10.706Z,7.57
2023-03-29T03:29:42.306Z,7.60
2023-03-29T03:32:13.827Z,12.02
2023-03-29T03:34:45.381Z,7.07
2023-03-29T03:37:16.898Z,7.07
2023-03-29T03:39:48.453Z,8.10
2023-03-29T03:42:20.208Z,7.05
2023-03-29T03:44:51.777Z,8.00
2023-03-29T03:47:23.369Z,7.22
2023-03-29T03:49:54.886Z,8.27
2023-03-29T03:52:26.770Z,7.00
2023-03-29T03:54:58.286Z,5.68
2023-03-29T03:57:29.935Z,7.68
2023-03-29T04:00:01.526Z,7.40
2023-03-29T04:02:33.222Z,8.55
2023-03-29T04:05:05.307Z,9.18
2023-03-29T04:07:36.978Z,7.43
2023-03-29T04:10:10.765Z,7.73
2023-03-29T04:12:42.370Z,7.38
2023-03-29T04:15:13.914Z,8.45
2023-03-29T04:17:45.469Z,10.07
2023-03-29T04:20:17.156Z,6.53
2023-03-29T04:22:48.868Z,6.30
2023-03-29T04:25:21.041Z,8.93
2023-03-29T04:27:52.784Z,10.40
2023-03-29T04:30:24.375Z,7.22
2023-03-29T04:32:55.938Z,6.65
2023-03-29T04:35:27.797Z,6.75
2023-03-29T04:37:59.391Z,7.53
2023-03-29T04:40:30.944Z,7.43
2023-03-29T04:43:02.543Z,8.68
2023-03-29T04:45:34.145Z,8.80
2023-03-29T04:48:05.795Z,9.07
2023-03-29T04:50:37.415Z,8.02
2023-03-29T04:53:08.954Z,7.63
2023-03-29T04:55:40.523Z,8.60
2023-03-29T04:58:12.013Z,9.52
2023-03-29T05:00:43.550Z,9.27
2023-03-29T05:03:15.090Z,6.35
2023-03-29T05:05:46.608Z,7.17
2023-03-29T05:08:18.157Z,5.85
2023-03-29T05:10:49.822Z,9.27
2023-03-29T05:13:21.351Z,9.98
2023-03-29T05:15:52.955Z,9.85
2023-03-29T05:18:24.562Z,8.32
2023-03-29T05:20:56.379Z,10.07
2023-03-29T05:23:28.165Z,8.80
2023-03-29T05:25:59.812Z,7.37
2023-03-29T05:28:31.320Z,7.85
2023-03-29T05:31:05.261Z,8.90
2023-03-29T05:33:37.058Z,8.80
2023-03-29T05:36:11.664Z,9.32
2023-03-29T05:38:43.890Z,8.13
2023-03-29T05:41:16.276Z,9.45
2023-03-29T05:43:47.858Z,9.70
2023-03-29T05:46:19.525Z,8.60
2023-03-29T05:48:51.226Z,8.20
2023-03-29T05:51:22.750Z,8.80
2023-03-29T05:53:54.290Z,9.43
2023-03-29T05:56:25.790Z,8.55
2023-03-29T05:58:57.316Z,9.18
2023-03-29T06:01:29.007Z,8.10
2023-03-29T06:04:00.817Z,9.93
2023-03-29T06:06:32.576Z,9.88
2023-03-29T06:09:04.638Z,9.02
2023-03-29T06:11:36.168Z,9.98
2023-03-29T06:14:07.743Z,6.97
2023-03-29T06:16:41.486Z,9.52
2023-03-29T06:19:14.424Z,7.88
2023-03-29T06:21:45.924Z,8.15
2023-03-29T06:24:17.441Z,7.82
2023-03-29T06:26:48.954Z,8.55
2023-03-29T06:29:20.504Z,9.48
2023-03-29T06:31:54.279Z,10.88
2023-03-29T06:34:25.816Z,10.63
2023-03-29T06:36:57.322Z,13.15
2023-03-29T06:39:28.833Z,11.93
2023-03-29T06:42:05.260Z,11.88
2023-03-29T06:44:41.635Z,12.25
2023-03-29T06:47:14.264Z,11.75
2023-03-29T06:49:45.810Z,8.77
2023-03-29T06:52:17.412Z,13.40
2023-03-29T06:54:48.943Z,12.00
2023-03-29T06:57:20.438Z,11.88
2023-03-29T06:59:51.983Z,13.50
2023-03-29T07:02:23.548Z,10.73
2023-03-29T07:04:55.110Z,11.60
2023-03-29T07:07:26.728Z,14.45
2023-03-29T07:09:58.261Z,11.60
2023-03-29T07:12:29.805Z,17.45
2023-03-29T07:15:01.368Z,13.82
2023-03-29T07:17:32.930Z,18.13
2023-03-29T07:20:04.783Z,13.90
2023-03-29T07:22:36.416Z,13.40
2023-03-29T07:25:08.534Z,12.88
2023-03-29T07:27:41.499Z,13.40
2023-03-29T07:30:21.737Z,16.10
2023-03-29T07:32:56.829Z,13.65
2023-03-29T07:35:28.879Z,16.52
2023-03-29T07:38:00.528Z,15.85
2023-03-29T07:40:32.101Z,15.75
2023-03-29T07:43:03.634Z,20.77
2023-03-29T07:45:35.285Z,20.55
2023-03-29T07:48:06.970Z,18.88
2023-03-29T07:50:38.902Z,21.95
2023-03-29T07:53:10.717Z,20.55
2023-03-29T07:55:42.532Z,22.73
2023-03-29T07:58:15.493Z,23.67
2023-03-29T08:00:47.379Z,24.47
2023-03-29T08:03:19.079Z,26.90
2023-03-29T08:05:50.664Z,24.45
2023-03-29T08:08:22.228Z,22.58
2023-03-29T08:10:53.934Z,22.35
2023-03-29T08:13:25.513Z,19.92
2023-03-29T08:15:57.081Z,21.98
2023-03-29T08:18:28.624Z,19.38
2023-03-29T08:21:00.501Z,22.75
2023-03-29T08:23:32.276Z,20.55
2023-03-29T08:26:03.918Z,20.95
2023-03-29T08:28:35.469Z,22.65
2023-03-29T08:31:08.138Z,19.38
2023-03-29T08:33:39.671Z,23.03
2023-03-29T08:36:11.429Z,18.80
2023-03-29T08:38:43.058Z,20.77
2023-03-29T08:41:23.680Z,19.55
2023-03-29T08:44:29.263Z,18.38
2023-03-29T08:47:29.601Z,19.48
2023-03-29T08:50:01.451Z,17.88
2023-03-29T08:52:43.149Z,24.45
2023-03-29T08:55:28.381Z,22.17
2023-03-29T08:58:02.894Z,22.05
2023-03-29T09:00:44.643Z,21.40
2023-03-29T09:03:42.665Z,22.58
2023-03-29T09:06:15.448Z,22.52
2023-03-29T09:08:49.412Z,22.50
2023-03-29T09:11:23.967Z,22.88
2023-03-29T09:14:23.488Z,21.45
2023-03-29T09:17:13.935Z,22.52
2023-03-29T09:19:58.643Z,21.95
2023-03-29T09:22:48.515Z,22.48
2023-03-29T09:25:32.937Z,20.60
2023-03-29T09:28:13.756Z,19.10
2023-03-29T09:30:54.221Z,16.95
2023-03-29T09:33:31.018Z,19.83
2023-03-29T09:36:08.560Z,18.60
2023-03-29T09:38:46.260Z,21.45
2023-03-29T09:41:42.337Z,21.58
2023-03-29T09:44:30.228Z,19.98
2023-03-29T09:47:19.734Z,18.85
2023-03-29T09:49:57.017Z,14.73
2023-03-29T09:52:28.645Z,16.95
2023-03-29T09:55:02.094Z,16.77
2023-03-29T09:57:34.231Z,16.80
2023-03-29T10:00:06.599Z,17.00
2023-03-29T10:02:38.194Z,17.30
2023-03-29T10:05:16.565Z,19.40
2023-03-29T10:07:53.028Z,19.53
2023-03-29T10:10:31.556Z,18.25
2023-03-29T10:13:07.046Z,16.13
2023-03-29T10:15:38.598Z,19.88
2023-03-29T10:18:14.397Z,18.95
2023-03-29T10:20:46.011Z,15.68
2023-03-29T10:23:18.664Z,16.80
2023-03-29T10:25:50.283Z,18.08
2023-03-29T10:28:21.930Z,14.23
2023-03-29T10:30:55.970Z,15.88
2023-03-29T10:33:33.128Z,14.55
2023-03-29T10:36:07.130Z,14.68
2023-03-29T10:38:38.750Z,11.77
2023-03-29T10:41:12.641Z,12.25
2023-03-29T10:43:49.445Z,11.35
2023-03-29T10:46:32.686Z,10.75
2023-03-29T10:49:05.766Z,9.73
2023-03-29T10:51:37.350Z,11.52
2023-03-29T10:54:13.976Z,12.15
2023-03-29T10:56:52.378Z,13.77
2023-03-29T10:59:35.128Z,13.07
2023-03-29T11:02:15.956Z,14.27
2023-03-29T11:05:19.675Z,13.45
2023-03-29T11:08:09.543Z,13.17
2023-03-29T11:10:46.948Z,14.48
2023-03-29T11:14:00.518Z,13.75
2023-03-29T11:16:56.157Z,13.65
2023-03-29T11:19:46.279Z,16.35
2023-03-29T11:22:46.667Z,14.60
2023-03-29T11:25:51.912Z,15.32
2023-03-29T11:28:29.568Z,12.70
2023-03-29T11:31:19.441Z,14.98
2023-03-29T11:34:12.246Z,16.92
2023-03-29T11:37:16.063Z,14.25
2023-03-29T11:40:09.551Z,17.00
2023-03-29T11:42:45.881Z,16.70
2023-03-29T11:45:31.914Z,20.83
2023-03-29T11:48:06.832Z,14.93
2023-03-29T11:50:50.471Z,14.35
2023-03-29T11:53:31.066Z,11.88
2023-03-29T11:56:12.088Z,15.10
2023-03-29T11:58:50.164Z,13.00
2023-03-29T12:01:34.196Z,12.68
2023-03-29T12:04:13.135Z,14.02
2023-03-29T12:06:54.945Z,15.15
2023-03-29T12:09:34.906Z,12.30
2023-03-29T12:12:11.000Z,11.53
2023-03-29T12:15:05.453Z,12.00
2023-03-29T12:17:46.902Z,10.80
2023-03-29T12:20:24.547Z,11.23
2023-03-29T12:22:56.125Z,9.45
2023-03-29T12:25:41.163Z,11.25
2023-03-29T12:28:24.898Z,11.63
2023-03-29T12:31:15.244Z,10.05
2023-03-29T12:34:18.062Z,11.88
2023-03-29T12:37:02.445Z,13.25
2023-03-29T12:39:36.080Z,10.90
2023-03-29T12:42:19.609Z,14.00
2023-03-29T12:44:59.653Z,16.88
2023-03-29T12:47:38.279Z,14.50
2023-03-29T12:50:28.968Z,16.15
2023-03-29T12:53:18.882Z,15.02
2023-03-29T12:56:06.606Z,15.75
2023-03-29T12:58:53.361Z,12.75
2023-03-29T13:01:31.236Z,12.30
2023-03-29T13:04:20.695Z,12.70
2023-03-29T13:06:57.016Z,13.10
2023-03-29T13:10:10.900Z,12.50
2023-03-29T13:12:44.657Z,13.23
2023-03-29T13:15:16.104Z,10.48
2023-03-29T13:18:15.028Z,11.85
2023-03-29T13:20:55.989Z,10.07
2023-03-29T13:23:56.910Z,9.25
2023-03-29T13:26:47.238Z,8.82
2023-03-29T13:29:32.972Z,9.52
2023-03-29T13:32:27.663Z,9.38
2023-03-29T13:35:18.034Z,7.55
2023-03-29T13:38:03.759Z,7.80
2023-03-29T13:40:41.087Z,11.10
2023-03-29T13:43:18.513Z,9.45
2023-03-29T13:45:59.381Z,8.55
2023-03-29T13:48:37.076Z,8.45
2023-03-29T13:51:17.444Z,8.77
2023-03-29T13:53:52.005Z,10.75
2023-03-29T13:56:29.880Z,9.48
2023-03-29T13:59:13.035Z,9.90
2023-03-29T14:01:52.758Z,9.70
2023-03-29T14:04:31.688Z,11.98
2023-03-29T14:07:06.192Z,11.30
2023-03-29T14:09:43.281Z,13.32
2023-03-29T14:12:15.465Z,12.57
2023-03-29T14:14:58.379Z,11.68
2023-03-29T14:17:30.780Z,12.52
2023-03-29T14:20:03.017Z,13.18
2023-03-29T14:22:34.694Z,11.40
2023-03-29T14:25:12.563Z,12.27
2023-03-29T14:27:44.793Z,10.73
2023-03-29T14:30:19.997Z,10.63
2023-03-29T14:32:51.561Z,8.88
2023-03-29T14:35:31.322Z,11.55
2023-03-29T14:38:03.046Z,11.25
2023-03-29T14:40:34.600Z,9.55
2023-03-29T14:43:07.866Z,10.82
2023-03-29T14:45:39.615Z,10.52
2023-03-29T14:48:13.269Z,12.17
2023-03-29T14:50:46.293Z,10.77
2023-03-29T14:53:23.005Z,10.77
2023-03-29T14:55:55.746Z,11.10
2023-03-29T14:58:31.326Z,12.95
2023-03-29T15:01:14.107Z,10.23
2023-03-29T15:04:05.197Z,9.45
2023-03-29T15:06:43.713Z,11.25
2023-03-29T15:09:19.934Z,9.65
2023-03-29T15:11:53.901Z,8.90
2023-03-29T15:14:28.880Z,7.90
2023-03-29T15:17:23.841Z,8.32
2023-03-29T15:20:00.972Z,7.07
2023-03-29T15:22:33.727Z,10.13
2023-03-29T15:25:18.045Z,9.48
2023-03-29T15:27:54.591Z,8.07
2023-03-29T15:30:36.974Z,6.80
2023-03-29T15:33:29.714Z,7.60
2023-03-29T15:36:02.500Z,9.23
2023-03-29T15:38:43.124Z,8.00
2023-03-29T15:41:15.904Z,6.95
2023-03-29T15:43:47.396Z,5.78
2023-03-29T15:46:18.988Z,7.82
2023-03-29T15:48:50.531Z,7.68
2023-03-29T15:51:22.057Z,8.43
2023-03-29T15:53:53.615Z,7.82
2023-03-29T15:56:25.233Z,6.18
2023-03-29T15:58:56.796Z,7.28
2023-03-29T16:01:33.044Z,8.05
2023-03-29T16:04:10.565Z,5.18
2023-03-29T16:06:43.709Z,5.95
2023-03-29T16:09:16.643Z,7.18
2023-03-29T16:11:49.679Z,6.80
2023-03-29T16:14:26.246Z,5.90
2023-03-29T16:16:59.860Z,5.45
2023-03-29T16:19:32.488Z,4.88
2023-03-29T16:22:04.030Z,5.15
2023-03-29T16:24:36.317Z,6.10
2023-03-29T16:27:07.898Z,6.22
2023-03-29T16:29:39.442Z,4.82
2023-03-29T16:32:11.141Z,5.20
2023-03-29T16:34:42.708Z,5.07
2023-03-29T16:37:14.261Z,4.38
2023-03-29T16:39:45.835Z,5.53
2023-03-29T16:44:49.084Z,4.38
2023-03-29T16:47:20.906Z,3.92
2023-03-29T16:49:52.800Z,4.95
2023-03-29T16:52:24.584Z,4.70
2023-03-29T16:54:56.160Z,4.53
2023-03-29T16:57:27.750Z,4.55
2023-03-29T16:59:59.473Z,4.30
2023-03-29T17:02:31.005Z,4.03
2023-03-29T17:05:03.096Z,4.67
2023-03-29T17:07:34.847Z,4.35
2023-03-29T17:10:07.823Z,4.00
2023-03-29T17:12:39.785Z,4.55
2023-03-29T17:15:11.356Z,5.57
2023-03-29T17:17:42.907Z,5.03
2023-03-29T17:20:14.497Z,4.20
2023-03-29T17:22:46.057Z,6.60
2023-03-29T17:25:18.279Z,5.63
2023-03-29T17:27:49.906Z,5.65
2023-03-29T17:30:21.448Z,4.35
2023-03-29T17:32:52.974Z,4.00
2023-03-29T17:35:24.545Z,4.87
2023-03-29T17:37:56.265Z,4.47
2023-03-29T17:40:27.811Z,5.00
2023-03-29T17:42:59.358Z,4.85
2023-03-29T17:45:31.112Z,6.25
2023-03-29T17:48:05.536Z,7.43
2023-03-29T17:50:37.854Z,6.28
2023-03-29T17:53:09.431Z,6.93
2023-03-29T17:55:41.032Z,7.22
2023-03-29T17:58:12.629Z,6.30
2023-03-29T18:00:45.218Z,6.50
2023-03-29T18:03:16.792Z,5.78
2023-03-29T18:05:48.382Z,7.47
2023-03-29T18:08:19.955Z,6.60
2023-03-29T18:10:51.564Z,6.30
2023-03-29T18:13:23.072Z,5.90
2023-03-29T18:15:56.126Z,6.15
2023-03-29T18:18:27.761Z,6.95
2023-03-29T18:20:59.938Z,5.50
2023-03-29T18:23:31.456Z,6.87
2023-03-29T18:26:04.632Z,6.40
2023-03-29T18:28:36.772Z,6.35
2023-03-29T18:31:08.624Z,7.78
2023-03-29T18:33:40.157Z,6.80
2023-03-29T18:36:13.235Z,9.48
2023-03-29T18:38:45.454Z,7.68
2023-03-29T18:41:16.990Z,6.82
2023-03-29T18:43:48.762Z,9.13
2023-03-29T18:46:20.313Z,9.20
2023-03-29T18:48:51.909Z,11.10
2023-03-29T18:51:24.366Z,7.20
2023-03-29T18:53:56.585Z,7.40
2023-03-29T18:56:28.124Z,7.40
2023-03-29T18:58:59.691Z,6.95
2023-03-29T19:01:31.271Z,9.85
2023-03-29T19:04:02.916Z,9.25
2023-03-29T19:06:34.538Z,8.15
2023-03-29T19:09:06.064Z,8.77
2023-03-29T19:11:37.634Z,8.35
2023-03-29T19:14:09.357Z,11.65
2023-03-29T19:16:42.768Z,10.95
2023-03-29T19:19:14.446Z,8.57
2023-03-29T19:21:46.884Z,8.38
2023-03-29T19:24:18.525Z,9.07
2023-03-29T19:26:50.152Z,7.13
2023-03-29T19:29:21.714Z,8.55
2023-03-29T19:31:53.298Z,7.50
2023-03-29T19:34:24.938Z,12.15
2023-03-29T19:36:56.454Z,8.00
2023-03-29T19:39:28.002Z,8.98
2023-03-29T19:41:59.536Z,7.40
2023-03-29T19:44:31.162Z,9.70
2023-03-29T19:47:02.704Z,9.63
2023-03-29T19:49:34.270Z,7.37
2023-03-29T19:52:05.821Z,9.70
2023-03-29T19:54:37.557Z,7.90
2023-03-29T19:57:09.220Z,8.95
2023-03-29T19:59:40.882Z,10.07
2023-03-29T20:02:13.087Z,9.38
2023-03-29T20:04:44.679Z,9.50
2023-03-29T20:07:16.242Z,9.18
2023-03-29T20:09:47.764Z,10.10
2023-03-29T20:12:19.301Z,10.02
2023-03-29T20:14:50.897Z,12.87
2023-03-29T20:17:22.458Z,9.07
2023-03-29T20:19:54.003Z,10.02
2023-03-29T20:22:25.640Z,9.38
2023-03-29T20:24:57.195Z,11.55
2023-03-29T20:27:28.677Z,9.48
2023-03-29T20:30:00.221Z,9.10
2023-03-29T20:32:31.789Z,10.33
2023-03-29T20:35:03.449Z,7.93
2023-03-29T20:37:35.003Z,7.18
2023-03-29T20:40:07.986Z,9.98
2023-03-29T20:42:39.550Z,11.25
2023-03-29T20:45:11.637Z,9.57
2023-03-29T20:47:43.193Z,10.73
2023-03-29T20:50:14.824Z,9.70
2023-03-29T20:52:46.508Z,8.27
2023-03-29T20:55:18.027Z,10.45
2023-03-29T20:57:53.493Z,7.82
2023-03-29T21:00:29.722Z,8.10
2023-03-29T21:03:02.311Z,7.60
2023-03-29T21:05:34.095Z,8.63
2023-03-29T21:08:05.781Z,7.03
2023-03-29T21:10:37.366Z,7.75
2023-03-29T21:13:08.882Z,7.25
2023-03-29T21:15:40.482Z,8.55
2023-03-29T21:18:12.187Z,9.80
2023-03-29T21:20:44.592Z,6.53
2023-03-29T21:23:16.108Z,7.70
2023-03-29T21:25:47.673Z,9.77
2023-03-29T21:28:19.192Z,8.73
2023-03-29T21:30:50.698Z,7.30
2023-03-29T21:33:22.214Z,7.13
2023-03-29T21:35:53.774Z,7.63
2023-03-29T21:38:25.328Z,9.25
2023-03-29T21:40:56.875Z,8.88
2023-03-29T21:43:28.463Z,8.13
2023-03-29T21:46:00.036Z,6.38
2023-03-29T21:48:32.054Z,7.78
2023-03-29T21:51:04.140Z,7.75
2023-03-29T21:53:35.966Z,10.82
2023-03-29T21:56:07.904Z,6.95
2023-03-29T21:58:39.523Z,8.13
2023-03-29T22:01:11.116Z,7.88
2023-03-29T22:03:42.699Z,8.80
2023-03-29T22:06:14.705Z,7.55
2023-03-29T22:08:46.355Z,8.60
2023-03-29T22:11:17.941Z,7.82
2023-03-29T22:13:51.998Z,9.73
2023-03-29T22:16:23.855Z,7.45
2023-03-29T22:18:55.434Z,7.45
2023-03-29T22:21:27.809Z,7.30
2023-03-29T22:24:00.578Z,8.38
2023-03-29T22:26:33.012Z,7.85
2023-03-29T22:29:04.494Z,8.45
2023-03-29T22:31:36.351Z,6.60
2023-03-29T22:34:07.899Z,8.95
2023-03-29T22:36:39.447Z,7.20
2023-03-29T22:39:10.970Z,10.38
2023-03-29T22:41:42.514Z,7.85
2023-03-29T22:44:14.068Z,9.43
2023-03-29T22:46:45.603Z,7.72
2023-03-29T22:49:17.158Z,8.77
2023-03-29T22:51:48.692Z,7.82
2023-03-29T22:54:20.188Z,7.97
2023-03-29T22:56:51.779Z,9.18
2023-03-29T22:59:24.226Z,8.23
2023-03-29T23:01:55.859Z,8.88
2023-03-29T23:04:27.459Z,7.80
2023-03-29T23:06:58.991Z,10.38
2023-03-29T23:09:30.519Z,5.47
2023-03-29T23:12:02.096Z,9.30
2023-03-29T23:14:33.814Z,7.07
2023-03-29T23:17:05.315Z,7.82
2023-03-29T23:19:37.043Z,8.07
2023-03-29T23:22:08.541Z,7.60
2023-03-29T23:24:40.358Z,6.83
2023-03-29T23:27:11.861Z,7.55
2023-03-29T23:29:43.411Z,8.73
2023-03-29T23:32:15.153Z,7.50
2023-03-29T23:34:46.708Z,6.32
2023-03-29T23:37:18.263Z,6.47
2023-03-29T23:39:49.810Z,5.73
2023-03-29T23:42:21.563Z,6.50
2023-03-29T23:44:53.057Z,6.17
2023-03-29T23:47:26.942Z,9.43
2023-03-29T23:49:58.449Z,7.65
2023-03-29T23:52:31.827Z,7.03
2023-03-29T23:55:04.384Z,6.78
2023-03-29T23:57:35.891Z,7.20
